Radar AviationWeather DUATS TFRs Wunderground Accuweather Weather.com

alt : Radar

TAFs

KDTW 221501Z 2215/2318 33010KT P6SM BKN045
   FM221700 30010KT P6SM BKN050
   FM222000 28008KT P6SM SCT050
   FM230100 24006KT P6SM BKN250
KCLE 221457Z 2215/2318 33012KT P6SM OVC025
     TEMPO 2215/2219 OVC035
   FM221900 31008KT P6SM BKN035
   FM230000 22005KT P6SM SCT035
   FM231000 20007KT P6SM BKN100
KJXN 221142Z 2212/2312 32009KT P6SM OVC035
   FM221600 31008KT P6SM BKN040
   FM222200 24007KT P6SM BKN040
   FM230200 21007KT P6SM BKN080
KFDY 221121Z 2212/2312 32010KT P6SM BKN040
   FM221400 32009KT P6SM SCT050
   FM221600 VRB06KT P6SM SCT250
   FM231100 20005KT P6SM BKN100
KTOL 221121Z 2212/2312 30008KT P6SM BKN035
   FM221400 31008KT P6SM SCT040
   FM221600 VRB06KT P6SM SCT250
   FM231000 22005KT P6SM BKN100
KFWA 221120Z 2212/2312 31006KT P6SM BKN035
   FM222200 25004KT P6SM SCT150
   FM230500 22004KT P6SM BKN100

METARs

KDUH 221615Z AUTO 33004KT 10SM SCT041 02/M09 A3030 RMK AO2 T00151092
KJXN 221556Z 33010G14KT 10SM BKN038 00/M10 A3028 RMK AO2 SLP266 T00001100
KFWA 221554Z 36007KT 10SM BKN036 02/M06 A3032 RMK AO2 SLP274 T00171056 $
KDTW 221553Z 36010KT 10SM OVC040 01/M09 A3029 RMK AO2 SLP263 T00061089
KFDY 221553Z AUTO 01007KT 10SM OVC032 01/M07 A3028 RMK AO2 SLP259 T00061072
KTDZ 221553Z AUTO 29010KT 10SM BKN035 M01/M08 A3030 RMK AO2 SLP267 T10061078
KTOL 221552Z 34007KT 10SM OVC035 00/M07 A3030 RMK AO2 SLP267 T00001072
KCLE 221551Z 30009KT 10SM OVC031 01/M06 A3027 RMK AO2 SLP256 T00111056

alt : Satellite

alt : TFRs